sensor_id;sensor_type;location;lat;lon;timestamp;P1;P2;P0
62547;PMS7003;48602;45.192;5.722;2023-04-24T00:00:54;2.25;2.00;2.00
62547;PMS7003;48602;45.192;5.722;2023-04-24T00:03:21;2.50;2.25;2.00
62547;PMS7003;48602;45.192;5.722;2023-04-24T00:05:47;2.00;2.00;2.00
62547;PMS7003;48602;45.192;5.722;2023-04-24T00:08:13;1.00;1.00;1.00
62547;PMS7003;48602;45.192;5.722;2023-04-24T00:10:38;2.25;2.00;1.00
62547;PMS7003;48602;45.192;5.722;2023-04-24T00:13:04;1.00;1.00;1.00
62547;PMS7003;48602;45.192;5.722;2023-04-24T00:15:29;2.00;2.00;1.50
62547;PMS7003;48602;45.192;5.722;2023-04-24T00:17:56;2.00;1.00;1.00
62547;PMS7003;48602;45.192;5.722;2023-04-24T00:20:21;1.75;1.75;1.25
62547;PMS7003;48602;45.192;5.722;2023-04-24T00:22:47;1.00;1.00;1.00
62547;PMS7003;48602;45.192;5.722;2023-04-24T00:25:12;1.75;1.75;1.50
62547;PMS7003;48602;45.192;5.722;2023-04-24T00:27:38;1.00;1.00;1.00
62547;PMS7003;48602;45.192;5.722;2023-04-24T00:30:04;2.50;1.75;1.00
62547;PMS7003;48602;45.192;5.722;2023-04-24T00:32:30;1.50;1.50;1.25
62547;PMS7003;48602;45.192;5.722;2023-04-24T00:34:55;1.25;1.00;1.00
62547;PMS7003;48602;45.192;5.722;2023-04-24T00:37:20;1.00;1.00;1.00
62547;PMS7003;48602;45.192;5.722;2023-04-24T00:39:46;1.00;1.00;1.00
62547;PMS7003;48602;45.192;5.722;2023-04-24T00:42:11;0.50;0.50;0.25
62547;PMS7003;48602;45.192;5.722;2023-04-24T00:44:37;2.00;2.00;1.50
62547;PMS7003;48602;45.192;5.722;2023-04-24T00:47:02;1.25;1.25;1.00
62547;PMS7003;48602;45.192;5.722;2023-04-24T00:49:28;1.00;1.00;1.00
62547;PMS7003;48602;45.192;5.722;2023-04-24T00:51:53;1.00;1.00;1.00
62547;PMS7003;48602;45.192;5.722;2023-04-24T00:54:18;1.50;1.50;1.00
62547;PMS7003;48602;45.192;5.722;2023-04-24T00:56:44;2.00;1.00;1.00
62547;PMS7003;48602;45.192;5.722;2023-04-24T00:59:11;0.00;0.00;0.00
62547;PMS7003;48602;45.192;5.722;2023-04-24T01:01:37;1.00;1.00;1.00
62547;PMS7003;48602;45.192;5.722;2023-04-24T01:04:07;0.00;0.00;0.00
62547;PMS7003;48602;45.192;5.722;2023-04-24T01:06:34;1.00;1.00;1.00
62547;PMS7003;48602;45.192;5.722;2023-04-24T01:09:02;0.00;0.00;0.00
62547;PMS7003;48602;45.192;5.722;2023-04-24T01:11:28;1.00;1.00;1.00
62547;PMS7003;48602;45.192;5.722;2023-04-24T01:13:55;1.00;1.00;1.00
62547;PMS7003;48602;45.192;5.722;2023-04-24T01:16:21;2.00;1.25;1.25
62547;PMS7003;48602;45.192;5.722;2023-04-24T01:18:47;1.00;1.00;1.00
62547;PMS7003;48602;45.192;5.722;2023-04-24T01:21:15;1.00;1.00;1.00
62547;PMS7003;48602;45.192;5.722;2023-04-24T01:23:44;6.50;4.00;4.00
62547;PMS7003;48602;45.192;5.722;2023-04-24T01:26:11;2.00;2.00;1.00
62547;PMS7003;48602;45.192;5.722;2023-04-24T01:28:38;0.00;0.00;0.00
62547;PMS7003;48602;45.192;5.722;2023-04-24T01:31:04;1.50;1.50;1.00
62547;PMS7003;48602;45.192;5.722;2023-04-24T01:33:30;1.00;1.00;1.00
62547;PMS7003;48602;45.192;5.722;2023-04-24T01:35:55;1.25;1.25;1.25
62547;PMS7003;48602;45.192;5.722;2023-04-24T01:38:21;1.25;1.25;1.00
62547;PMS7003;48602;45.192;5.722;2023-04-24T01:40:47;1.00;1.00;1.00
62547;PMS7003;48602;45.192;5.722;2023-04-24T01:43:12;1.50;1.00;1.00
62547;PMS7003;48602;45.192;5.722;2023-04-24T01:45:38;0.00;0.00;0.00
62547;PMS7003;48602;45.192;5.722;2023-04-24T01:48:03;2.25;1.00;1.00
62547;PMS7003;48602;45.192;5.722;2023-04-24T01:50:30;1.00;1.00;1.00
62547;PMS7003;48602;45.192;5.722;2023-04-24T01:52:55;1.00;1.00;1.00
62547;PMS7003;48602;45.192;5.722;2023-04-24T01:55:21;0.75;0.75;0.50
62547;PMS7003;48602;45.192;5.722;2023-04-24T01:57:46;1.00;0.00;0.00
62547;PMS7003;48602;45.192;5.722;2023-04-24T02:00:12;1.00;1.00;1.00
62547;PMS7003;48602;45.192;5.722;2023-04-24T02:02:38;0.50;0.50;0.00
62547;PMS7003;48602;45.192;5.722;2023-04-24T02:05:08;0.00;0.00;0.00
62547;PMS7003;48602;45.192;5.722;2023-04-24T02:07:33;0.00;0.00;0.00
62547;PMS7003;48602;45.192;5.722;2023-04-24T02:09:58;1.00;1.00;0.75
62547;PMS7003;48602;45.192;5.722;2023-04-24T02:12:24;2.75;2.00;1.00
62547;PMS7003;48602;45.192;5.722;2023-04-24T02:14:49;0.00;0.00;0.00
62547;PMS7003;48602;45.192;5.722;2023-04-24T02:17:15;1.50;0.25;0.25
62547;PMS7003;48602;45.192;5.722;2023-04-24T02:19:41;0.50;0.50;0.50
62547;PMS7003;48602;45.192;5.722;2023-04-24T02:22:06;0.75;0.75;0.75
62547;PMS7003;48602;45.192;5.722;2023-04-24T02:24:32;1.00;1.00;1.00
62547;PMS7003;48602;45.192;5.722;2023-04-24T02:26:57;1.00;1.00;0.00
62547;PMS7003;48602;45.192;5.722;2023-04-24T02:29:23;1.00;0.00;0.00
62547;PMS7003;48602;45.192;5.722;2023-04-24T02:31:48;0.00;0.00;0.00
62547;PMS7003;48602;45.192;5.722;2023-04-24T02:34:13;0.75;0.75;0.75
62547;PMS7003;48602;45.192;5.722;2023-04-24T02:36:39;1.00;0.00;0.00
62547;PMS7003;48602;45.192;5.722;2023-04-24T02:39:04;0.00;0.00;0.00
62547;PMS7003;48602;45.192;5.722;2023-04-24T02:41:30;1.00;0.00;0.00
62547;PMS7003;48602;45.192;5.722;2023-04-24T02:43:57;0.60;0.00;0.00
62547;PMS7003;48602;45.192;5.722;2023-04-24T02:46:23;0.00;0.00;0.00
62547;PMS7003;48602;45.192;5.722;2023-04-24T02:48:49;1.00;1.00;0.00
62547;PMS7003;48602;45.192;5.722;2023-04-24T02:51:14;1.00;1.00;1.00
62547;PMS7003;48602;45.192;5.722;2023-04-24T02:53:40;0.50;0.00;0.00
62547;PMS7003;48602;45.192;5.722;2023-04-24T02:56:05;0.00;0.00;0.00
62547;PMS7003;48602;45.192;5.722;2023-04-24T02:58:31;1.00;0.00;0.00
62547;PMS7003;48602;45.192;5.722;2023-04-24T03:00:56;0.00;0.00;0.00
62547;PMS7003;48602;45.192;5.722;2023-04-24T03:03:22;0.00;0.00;0.00
62547;PMS7003;48602;45.192;5.722;2023-04-24T03:05:47;0.00;0.00;0.00
62547;PMS7003;48602;45.192;5.722;2023-04-24T03:08:13;0.00;0.00;0.00
62547;PMS7003;48602;45.192;5.722;2023-04-24T03:10:40;0.00;0.00;0.00
62547;PMS7003;48602;45.192;5.722;2023-04-24T03:13:05;0.50;0.00;0.00
62547;PMS7003;48602;45.192;5.722;2023-04-24T03:15:31;0.25;0.00;0.00
62547;PMS7003;48602;45.192;5.722;2023-04-24T03:17:56;1.00;0.00;0.00
62547;PMS7003;48602;45.192;5.722;2023-04-24T03:20:22;0.00;0.00;0.00
62547;PMS7003;48602;45.192;5.722;2023-04-24T03:22:48;0.75;0.00;0.00
62547;PMS7003;48602;45.192;5.722;2023-04-24T03:25:13;0.50;0.50;0.00
62547;PMS7003;48602;45.192;5.722;2023-04-24T03:27:38;0.25;0.25;0.00
62547;PMS7003;48602;45.192;5.722;2023-04-24T03:30:05;0.00;0.00;0.00
62547;PMS7003;48602;45.192;5.722;2023-04-24T03:32:31;1.00;1.00;1.00
62547;PMS7003;48602;45.192;5.722;2023-04-24T03:34:57;2.00;1.00;1.00
62547;PMS7003;48602;45.192;5.722;2023-04-24T03:37:22;0.50;0.50;0.25
62547;PMS7003;48602;45.192;5.722;2023-04-24T03:39:48;2.00;0.25;0.25
62547;PMS7003;48602;45.192;5.722;2023-04-24T03:42:13;1.00;1.00;0.75
62547;PMS7003;48602;45.192;5.722;2023-04-24T03:44:39;1.00;1.00;1.00
62547;PMS7003;48602;45.192;5.722;2023-04-24T03:47:04;0.25;0.25;0.25
62547;PMS7003;48602;45.192;5.722;2023-04-24T03:49:29;1.50;0.00;0.00
62547;PMS7003;48602;45.192;5.722;2023-04-24T03:51:55;1.00;1.00;1.00
62547;PMS7003;48602;45.192;5.722;2023-04-24T03:54:20;0.50;0.50;0.50
62547;PMS7003;48602;45.192;5.722;2023-04-24T03:56:46;0.50;0.50;0.50
62547;PMS7003;48602;45.192;5.722;2023-04-24T03:59:11;1.00;1.00;1.00
62547;PMS7003;48602;45.192;5.722;2023-04-24T04:01:37;0.75;0.75;0.75
62547;PMS7003;48602;45.192;5.722;2023-04-24T04:04:05;1.00;1.00;1.00
62547;PMS7003;48602;45.192;5.722;2023-04-24T04:06:31;1.60;1.00;1.00
62547;PMS7003;48602;45.192;5.722;2023-04-24T04:08:57;0.00;0.00;0.00
62547;PMS7003;48602;45.192;5.722;2023-04-24T04:11:23;0.60;0.60;0.60
62547;PMS7003;48602;45.192;5.722;2023-04-24T04:13:48;1.00;1.00;1.00
62547;PMS7003;48602;45.192;5.722;2023-04-24T04:16:14;1.00;1.00;1.00
62547;PMS7003;48602;45.192;5.722;2023-04-24T04:18:41;2.20;1.00;0.60
62547;PMS7003;48602;45.192;5.722;2023-04-24T04:21:07;2.00;1.00;1.00
62547;PMS7003;48602;45.192;5.722;2023-04-24T04:23:33;1.00;1.00;0.75
62547;PMS7003;48602;45.192;5.722;2023-04-24T04:25:58;1.25;1.25;1.00
62547;PMS7003;48602;45.192;5.722;2023-04-24T04:28:24;1.00;1.00;1.00
62547;PMS7003;48602;45.192;5.722;2023-04-24T04:30:49;1.00;1.00;1.00
62547;PMS7003;48602;45.192;5.722;2023-04-24T04:33:19;1.00;1.00;1.00
62547;PMS7003;48602;45.192;5.722;2023-04-24T04:35:45;2.00;1.75;1.00
62547;PMS7003;48602;45.192;5.722;2023-04-24T04:38:13;0.40;0.40;0.40
62547;PMS7003;48602;45.192;5.722;2023-04-24T04:40:39;1.50;1.50;1.50
62547;PMS7003;48602;45.192;5.722;2023-04-24T04:43:05;26.00;21.00;16.33
62547;PMS7003;48602;45.192;5.722;2023-04-24T04:45:31;36.67;32.00;22.00
62547;PMS7003;48602;45.192;5.722;2023-04-24T04:47:57;26.67;26.00;19.67
62547;PMS7003;48602;45.192;5.722;2023-04-24T04:50:25;35.67;31.00;21.00
62547;PMS7003;48602;45.192;5.722;2023-04-24T04:52:51;2.00;2.00;2.00
62547;PMS7003;48602;45.192;5.722;2023-04-24T04:55:17;6.25;5.75;4.75
62547;PMS7003;48602;45.192;5.722;2023-04-24T04:57:43;7.00;7.00;5.00
62547;PMS7003;48602;45.192;5.722;2023-04-24T05:00:08;5.25;5.25;4.75
62547;PMS7003;48602;45.192;5.722;2023-04-24T05:02:35;8.50;6.25;5.75
62547;PMS7003;48602;45.192;5.722;2023-04-24T05:05:01;7.00;7.00;5.00
62547;PMS7003;48602;45.192;5.722;2023-04-24T05:07:26;2.00;2.00;1.00
62547;PMS7003;48602;45.192;5.722;2023-04-24T05:09:52;3.00;3.00;2.00
62547;PMS7003;48602;45.192;5.722;2023-04-24T05:12:17;7.00;6.00;5.00
62547;PMS7003;48602;45.192;5.722;2023-04-24T05:14:42;9.75;6.75;4.50
62547;PMS7003;48602;45.192;5.722;2023-04-24T05:17:08;7.75;7.00;6.00
62547;PMS7003;48602;45.192;5.722;2023-04-24T05:19:33;10.00;8.75;6.25
62547;PMS7003;48602;45.192;5.722;2023-04-24T05:22:00;10.00;9.50;7.75
62547;PMS7003;48602;45.192;5.722;2023-04-24T05:24:28;10.50;9.25;7.50
62547;PMS7003;48602;45.192;5.722;2023-04-24T05:26:53;7.00;5.25;5.00
62547;PMS7003;48602;45.192;5.722;2023-04-24T05:29:19;5.50;4.00;4.00
62547;PMS7003;48602;45.192;5.722;2023-04-24T05:31:44;3.00;2.50;2.00
62547;PMS7003;48602;45.192;5.722;2023-04-24T05:34:10;1.50;1.50;1.50
62547;PMS7003;48602;45.192;5.722;2023-04-24T05:36:35;1.50;1.50;1.25
62547;PMS7003;48602;45.192;5.722;2023-04-24T05:39:00;5.00;3.00;3.00
62547;PMS7003;48602;45.192;5.722;2023-04-24T05:41:26;3.00;2.50;2.50
62547;PMS7003;48602;45.192;5.722;2023-04-24T05:43:51;2.75;2.75;2.25
62547;PMS7003;48602;45.192;5.722;2023-04-24T05:46:16;3.00;3.00;3.00
62547;PMS7003;48602;45.192;5.722;2023-04-24T05:48:42;3.00;3.00;2.00
62547;PMS7003;48602;45.192;5.722;2023-04-24T05:51:08;3.00;3.00;3.00
62547;PMS7003;48602;45.192;5.722;2023-04-24T05:53:35;2.50;2.50;2.50
62547;PMS7003;48602;45.192;5.722;2023-04-24T05:56:00;3.75;3.50;3.00
62547;PMS7003;48602;45.192;5.722;2023-04-24T05:58:25;3.25;3.00;3.00
62547;PMS7003;48602;45.192;5.722;2023-04-24T06:00:51;4.25;3.00;3.00
62547;PMS7003;48602;45.192;5.722;2023-04-24T06:03:16;3.75;3.75;3.25
62547;PMS7003;48602;45.192;5.722;2023-04-24T06:05:42;3.00;3.00;3.00
62547;PMS7003;48602;45.192;5.722;2023-04-24T06:08:07;3.50;3.50;3.00
62547;PMS7003;48602;45.192;5.722;2023-04-24T06:10:33;3.00;3.00;2.00
62547;PMS7003;48602;45.192;5.722;2023-04-24T06:12:58;2.50;2.50;2.25
62547;PMS7003;48602;45.192;5.722;2023-04-24T06:15:26;2.80;2.80;2.40
62547;PMS7003;48602;45.192;5.722;2023-04-24T06:17:53;2.50;2.00;1.50
62547;PMS7003;48602;45.192;5.722;2023-04-24T06:20:19;1.00;1.00;1.00
62547;PMS7003;48602;45.192;5.722;2023-04-24T06:22:44;1.75;1.75;1.25
62547;PMS7003;48602;45.192;5.722;2023-04-24T06:25:09;5.50;3.75;3.25
62547;PMS7003;48602;45.192;5.722;2023-04-24T06:27:35;3.25;3.25;3.00
62547;PMS7003;48602;45.192;5.722;2023-04-24T06:30:01;4.50;3.00;2.50
62547;PMS7003;48602;45.192;5.722;2023-04-24T06:32:26;3.50;3.00;2.00
62547;PMS7003;48602;45.192;5.722;2023-04-24T06:34:52;2.75;1.75;1.25
62547;PMS7003;48602;45.192;5.722;2023-04-24T06:37:18;2.00;2.00;2.00
62547;PMS7003;48602;45.192;5.722;2023-04-24T06:39:45;5.75;3.00;2.25
62547;PMS7003;48602;45.192;5.722;2023-04-24T06:42:11;3.25;3.00;3.00
62547;PMS7003;48602;45.192;5.722;2023-04-24T06:44:36;3.25;3.00;3.00
62547;PMS7003;48602;45.192;5.722;2023-04-24T06:47:06;3.00;3.00;2.00
62547;PMS7003;48602;45.192;5.722;2023-04-24T06:49:33;2.25;2.25;2.00
62547;PMS7003;48602;45.192;5.722;2023-04-24T06:51:59;2.00;2.00;2.00
62547;PMS7003;48602;45.192;5.722;2023-04-24T06:54:24;0.00;0.00;0.00
62547;PMS7003;48602;45.192;5.722;2023-04-24T06:56:49;3.00;3.00;3.00
62547;PMS7003;48602;45.192;5.722;2023-04-24T06:59:16;2.50;2.00;2.00
62547;PMS7003;48602;45.192;5.722;2023-04-24T07:01:41;2.00;1.25;1.00
62547;PMS7003;48602;45.192;5.722;2023-04-24T07:04:07;2.50;2.25;2.00
62547;PMS7003;48602;45.192;5.722;2023-04-24T07:06:32;2.00;2.00;2.00
62547;PMS7003;48602;45.192;5.722;2023-04-24T07:08:57;2.25;2.25;2.25
62547;PMS7003;48602;45.192;5.722;2023-04-24T07:11:25;4.00;4.00;4.00
62547;PMS7003;48602;45.192;5.722;2023-04-24T07:13:54;4.50;4.50;4.00
62547;PMS7003;48602;45.192;5.722;2023-04-24T07:16:19;5.50;5.00;4.75
62547;PMS7003;48602;45.192;5.722;2023-04-24T07:18:45;5.75;5.75;4.00
62547;PMS7003;48602;45.192;5.722;2023-04-24T07:21:10;5.00;5.00;3.75
62547;PMS7003;48602;45.192;5.722;2023-04-24T07:23:36;5.00;5.00;4.25
62547;PMS7003;48602;45.192;5.722;2023-04-24T07:26:02;0.75;0.75;0.75
62547;PMS7003;48602;45.192;5.722;2023-04-24T07:28:27;3.00;2.75;2.00
62547;PMS7003;48602;45.192;5.722;2023-04-24T07:30:56;2.50;2.25;2.00
62547;PMS7003;48602;45.192;5.722;2023-04-24T07:33:22;2.00;2.00;2.00
62547;PMS7003;48602;45.192;5.722;2023-04-24T07:35:47;3.50;3.00;2.50
62547;PMS7003;48602;45.192;5.722;2023-04-24T07:38:13;1.75;1.75;1.00
62547;PMS7003;48602;45.192;5.722;2023-04-24T07:40:38;2.25;2.00;2.00
62547;PMS7003;48602;45.192;5.722;2023-04-24T07:43:04;2.25;1.75;1.75
62547;PMS7003;48602;45.192;5.722;2023-04-24T07:45:29;2.00;2.00;1.75
62547;PMS7003;48602;45.192;5.722;2023-04-24T07:47:56;4.50;3.00;2.00
62547;PMS7003;48602;45.192;5.722;2023-04-24T07:50:21;6.00;4.00;3.75
62547;PMS7003;48602;45.192;5.722;2023-04-24T07:52:47;4.75;4.75;4.00
62547;PMS7003;48602;45.192;5.722;2023-04-24T07:55:12;1.00;1.00;1.00
62547;PMS7003;48602;45.192;5.722;2023-04-24T07:57:38;2.00;2.00;1.25
62547;PMS7003;48602;45.192;5.722;2023-04-24T08:00:04;1.00;1.00;1.00
62547;PMS7003;48602;45.192;5.722;2023-04-24T08:02:30;1.60;1.40;1.40
62547;PMS7003;48602;45.192;5.722;2023-04-24T08:04:56;1.50;1.00;1.00
62547;PMS7003;48602;45.192;5.722;2023-04-24T08:07:21;2.75;2.00;2.00
62547;PMS7003;48602;45.192;5.722;2023-04-24T08:09:47;3.00;1.00;1.00
62547;PMS7003;48602;45.192;5.722;2023-04-24T08:12:13;2.00;1.75;1.00
62547;PMS7003;48602;45.192;5.722;2023-04-24T08:14:39;2.00;2.00;1.00
62547;PMS7003;48602;45.192;5.722;2023-04-24T08:17:04;1.75;1.00;0.75
62547;PMS7003;48602;45.192;5.722;2023-04-24T08:19:29;1.00;1.00;1.00
62547;PMS7003;48602;45.192;5.722;2023-04-24T08:21:55;1.75;1.75;1.00
62547;PMS7003;48602;45.192;5.722;2023-04-24T08:24:20;1.00;1.00;1.00
62547;PMS7003;48602;45.192;5.722;2023-04-24T08:26:46;1.00;1.00;1.00
62547;PMS7003;48602;45.192;5.722;2023-04-24T08:29:15;1.25;1.25;1.00
62547;PMS7003;48602;45.192;5.722;2023-04-24T08:31:40;1.50;1.00;1.00
62547;PMS7003;48602;45.192;5.722;2023-04-24T08:34:06;1.25;1.25;1.25
62547;PMS7003;48602;45.192;5.722;2023-04-24T08:36:31;1.25;1.25;1.00
62547;PMS7003;48602;45.192;5.722;2023-04-24T08:38:57;1.00;1.00;1.00
62547;PMS7003;48602;45.192;5.722;2023-04-24T08:41:22;4.25;4.25;4.00
62547;PMS7003;48602;45.192;5.722;2023-04-24T08:43:51;2.00;2.00;2.00
62547;PMS7003;48602;45.192;5.722;2023-04-24T08:46:16;2.25;2.25;2.00
62547;PMS7003;48602;45.192;5.722;2023-04-24T08:48:43;2.25;2.25;1.75
62547;PMS7003;48602;45.192;5.722;2023-04-24T08:51:10;4.20;4.00;3.00
62547;PMS7003;48602;45.192;5.722;2023-04-24T08:53:36;7.00;7.00;6.00
62547;PMS7003;48602;45.192;5.722;2023-04-24T08:56:01;7.75;7.00;5.50
62547;PMS7003;48602;45.192;5.722;2023-04-24T08:58:27;7.00;7.00;5.75
62547;PMS7003;48602;45.192;5.722;2023-04-24T09:00:57;9.00;8.00;6.00
62547;PMS7003;48602;45.192;5.722;2023-04-24T09:03:23;11.00;9.00;7.25
62547;PMS7003;48602;45.192;5.722;2023-04-24T09:05:49;10.00;10.00;8.50
62547;PMS7003;48602;45.192;5.722;2023-04-24T09:08:18;4.00;3.75;3.00
62547;PMS7003;48602;45.192;5.722;2023-04-24T09:10:46;2.00;2.00;1.40
62547;PMS7003;48602;45.192;5.722;2023-04-24T09:13:11;2.00;2.00;2.00
62547;PMS7003;48602;45.192;5.722;2023-04-24T09:15:37;2.25;2.25;2.00
62547;PMS7003;48602;45.192;5.722;2023-04-24T09:18:04;4.00;2.00;2.00
62547;PMS7003;48602;45.192;5.722;2023-04-24T09:20:30;3.00;3.00;2.20
62547;PMS7003;48602;45.192;5.722;2023-04-24T09:22:59;13.50;9.50;7.75
62547;PMS7003;48602;45.192;5.722;2023-04-24T09:25:34;3.25;2.50;2.25
62547;PMS7003;48602;45.192;5.722;2023-04-24T09:28:03;9.00;8.00;7.00
62547;PMS7003;48602;45.192;5.722;2023-04-24T09:30:29;2.00;2.00;1.40
62547;PMS7003;48602;45.192;5.722;2023-04-24T09:33:14;3.00;2.00;2.00
62547;PMS7003;48602;45.192;5.722;2023-04-24T09:36:01;1.25;1.25;1.00
62547;PMS7003;48602;45.192;5.722;2023-04-24T09:38:33;3.80;3.00;3.00
62547;PMS7003;48602;45.192;5.722;2023-04-24T09:41:06;3.40;2.80;2.00
62547;PMS7003;48602;45.192;5.722;2023-04-24T09:43:33;1.60;1.60;1.60
62547;PMS7003;48602;45.192;5.722;2023-04-24T09:46:00;1.60;1.20;1.00
62547;PMS7003;48602;45.192;5.722;2023-04-24T09:48:33;1.00;1.00;1.00
62547;PMS7003;48602;45.192;5.722;2023-04-24T09:51:01;1.60;1.60;1.40
62547;PMS7003;48602;45.192;5.722;2023-04-24T09:53:28;4.00;2.60;2.20
62547;PMS7003;48602;45.192;5.722;2023-04-24T09:55:55;3.00;2.80;2.00
62547;PMS7003;48602;45.192;5.722;2023-04-24T09:58:27;3.00;3.00;2.75
62547;PMS7003;48602;45.192;5.722;2023-04-24T10:00:54;3.00;3.00;2.80
62547;PMS7003;48602;45.192;5.722;2023-04-24T10:03:21;3.40;2.40;2.00
62547;PMS7003;48602;45.192;5.722;2023-04-24T10:05:51;1.25;1.00;0.50
62547;PMS7003;48602;45.192;5.722;2023-04-24T10:08:16;1.00;1.00;1.00
62547;PMS7003;48602;45.192;5.722;2023-04-24T10:10:43;0.50;0.50;0.50
62547;PMS7003;48602;45.192;5.722;2023-04-24T10:13:10;1.60;1.60;1.40
62547;PMS7003;48602;45.192;5.722;2023-04-24T10:15:37;1.60;1.60;1.60
62547;PMS7003;48602;45.192;5.722;2023-04-24T10:18:04;2.40;1.60;1.60
62547;PMS7003;48602;45.192;5.722;2023-04-24T10:20:31;1.80;1.20;1.00
62547;PMS7003;48602;45.192;5.722;2023-04-24T10:22:58;1.20;1.00;0.60
62547;PMS7003;48602;45.192;5.722;2023-04-24T10:25:28;1.25;1.25;1.00
62547;PMS7003;48602;45.192;5.722;2023-04-24T10:27:56;1.00;1.00;1.00
62547;PMS7003;48602;45.192;5.722;2023-04-24T10:30:25;1.00;1.00;1.00
62547;PMS7003;48602;45.192;5.722;2023-04-24T10:32:54;1.80;0.60;0.60
62547;PMS7003;48602;45.192;5.722;2023-04-24T10:35:19;1.00;1.00;1.00
62547;PMS7003;48602;45.192;5.722;2023-04-24T10:38:06;0.60;0.60;0.60
62547;PMS7003;48602;45.192;5.722;2023-04-24T10:40:36;1.00;1.00;1.00
62547;PMS7003;48602;45.192;5.722;2023-04-24T10:43:03;3.00;2.00;2.00
62547;PMS7003;48602;45.192;5.722;2023-04-24T10:45:33;1.20;1.00;1.00
62547;PMS7003;48602;45.192;5.722;2023-04-24T10:48:05;1.00;1.00;1.00
62547;PMS7003;48602;45.192;5.722;2023-04-24T10:50:48;11.60;11.60;9.60
62547;PMS7003;48602;45.192;5.722;2023-04-24T10:53:17;2.60;2.60;2.60
62547;PMS7003;48602;45.192;5.722;2023-04-24T10:55:45;2.40;2.40;2.00
62547;PMS7003;48602;45.192;5.722;2023-04-24T10:58:12;0.80;0.80;0.80
62547;PMS7003;48602;45.192;5.722;2023-04-24T11:00:39;2.40;1.60;1.60
62547;PMS7003;48602;45.192;5.722;2023-04-24T11:03:28;2.80;2.80;1.80
62547;PMS7003;48602;45.192;5.722;2023-04-24T11:11:08;2.00;2.00;1.20
62547;PMS7003;48602;45.192;5.722;2023-04-24T11:16:32;0.80;0.80;0.80
62547;PMS7003;48602;45.192;5.722;2023-04-24T11:21:39;1.00;1.00;1.00
62547;PMS7003;48602;45.192;5.722;2023-04-24T11:24:49;1.60;1.60;1.40
62547;PMS7003;48602;45.192;5.722;2023-04-24T11:26:59;1.00;1.00;1.00
62547;PMS7003;48602;45.192;5.722;2023-04-24T11:29:38;1.00;1.00;1.00
62547;PMS7003;48602;45.192;5.722;2023-04-24T11:32:41;2.00;1.80;1.20
62547;PMS7003;48602;45.192;5.722;2023-04-24T11:37:40;3.00;3.00;2.20
62547;PMS7003;48602;45.192;5.722;2023-04-24T11:40:10;1.00;1.00;1.00
62547;PMS7003;48602;45.192;5.722;2023-04-24T11:42:38;1.00;1.00;1.00
62547;PMS7003;48602;45.192;5.722;2023-04-24T11:45:09;0.20;0.00;0.00
62547;PMS7003;48602;45.192;5.722;2023-04-24T11:47:35;1.00;1.00;1.00
62547;PMS7003;48602;45.192;5.722;2023-04-24T11:50:01;1.00;1.00;1.00
62547;PMS7003;48602;45.192;5.722;2023-04-24T11:52:29;0.00;0.00;0.00
62547;PMS7003;48602;45.192;5.722;2023-04-24T11:54:55;1.20;1.20;0.80
62547;PMS7003;48602;45.192;5.722;2023-04-24T11:57:21;1.00;0.00;0.00
62547;PMS7003;48602;45.192;5.722;2023-04-24T11:59:48;1.00;1.00;0.60
62547;PMS7003;48602;45.192;5.722;2023-04-24T12:02:24;1.25;1.00;1.00
62547;PMS7003;48602;45.192;5.722;2023-04-24T12:04:51;1.80;1.00;1.00
62547;PMS7003;48602;45.192;5.722;2023-04-24T12:07:17;1.00;1.00;1.00
62547;PMS7003;48602;45.192;5.722;2023-04-24T12:09:44;1.50;1.00;1.00
62547;PMS7003;48602;45.192;5.722;2023-04-24T12:12:11;1.80;1.00;1.00
62547;PMS7003;48602;45.192;5.722;2023-04-24T12:14:47;2.60;2.60;2.60
62547;PMS7003;48602;45.192;5.722;2023-04-24T12:17:23;0.80;0.80;0.80
62547;PMS7003;48602;45.192;5.722;2023-04-24T12:19:50;1.00;1.00;1.00
62547;PMS7003;48602;45.192;5.722;2023-04-24T12:22:16;1.00;1.00;1.00
62547;PMS7003;48602;45.192;5.722;2023-04-24T12:27:30;1.00;1.00;1.00
62547;PMS7003;48602;45.192;5.722;2023-04-24T12:29:59;2.40;1.00;1.00
62547;PMS7003;48602;45.192;5.722;2023-04-24T12:32:27;0.20;0.20;0.20
62547;PMS7003;48602;45.192;5.722;2023-04-24T12:34:52;0.00;0.00;0.00
62547;PMS7003;48602;45.192;5.722;2023-04-24T12:37:20;2.20;1.00;1.00
62547;PMS7003;48602;45.192;5.722;2023-04-24T12:42:27;2.00;1.00;1.00
62547;PMS7003;48602;45.192;5.722;2023-04-24T12:44:57;2.00;1.40;1.20
62547;PMS7003;48602;45.192;5.722;2023-04-24T12:47:24;3.80;2.00;2.00
62547;PMS7003;48602;45.192;5.722;2023-04-24T12:49:51;0.80;0.60;0.60
62547;PMS7003;48602;45.192;5.722;2023-04-24T12:52:17;2.80;1.00;1.00
62547;PMS7003;48602;45.192;5.722;2023-04-24T12:54:45;1.60;1.00;1.00
62547;PMS7003;48602;45.192;5.722;2023-04-24T12:57:10;1.00;1.00;1.00
62547;PMS7003;48602;45.192;5.722;2023-04-24T12:59:36;1.00;1.00;1.00
62547;PMS7003;48602;45.192;5.722;2023-04-24T13:02:01;0.00;0.00;0.00
62547;PMS7003;48602;45.192;5.722;2023-04-24T13:04:27;0.00;0.00;0.00
62547;PMS7003;48602;45.192;5.722;2023-04-24T13:06:53;1.00;1.00;1.00
62547;PMS7003;48602;45.192;5.722;2023-04-24T13:09:18;2.00;0.00;0.00
62547;PMS7003;48602;45.192;5.722;2023-04-24T13:11:43;1.00;1.00;1.00
62547;PMS7003;48602;45.192;5.722;2023-04-24T13:14:09;1.00;1.00;0.25
62547;PMS7003;48602;45.192;5.722;2023-04-24T13:16:34;0.25;0.25;0.00
62547;PMS7003;48602;45.192;5.722;2023-04-24T13:19:00;1.00;1.00;1.00
62547;PMS7003;48602;45.192;5.722;2023-04-24T13:21:25;2.00;2.00;2.00
62547;PMS7003;48602;45.192;5.722;2023-04-24T13:23:51;1.00;1.00;1.00
62547;PMS7003;48602;45.192;5.722;2023-04-24T13:26:16;2.00;2.00;2.00
62547;PMS7003;48602;45.192;5.722;2023-04-24T13:28:42;1.25;1.25;1.00
62547;PMS7003;48602;45.192;5.722;2023-04-24T13:31:07;2.50;2.00;2.00
62547;PMS7003;48602;45.192;5.722;2023-04-24T13:33:33;1.00;1.00;1.00
62547;PMS7003;48602;45.192;5.722;2023-04-24T13:35:58;2.00;1.25;1.25
62547;PMS7003;48602;45.192;5.722;2023-04-24T13:38:24;0.50;0.50;0.50
62547;PMS7003;48602;45.192;5.722;2023-04-24T13:40:49;3.00;1.25;1.25
62547;PMS7003;48602;45.192;5.722;2023-04-24T13:43:14;2.50;2.00;2.00
62547;PMS7003;48602;45.192;5.722;2023-04-24T13:45:40;1.00;1.00;1.00
62547;PMS7003;48602;45.192;5.722;2023-04-24T13:48:06;2.50;2.00;2.00
62547;PMS7003;48602;45.192;5.722;2023-04-24T13:50:31;6.00;1.25;1.00
62547;PMS7003;48602;45.192;5.722;2023-04-24T13:52:56;0.75;0.75;0.75
62547;PMS7003;48602;45.192;5.722;2023-04-24T13:55:22;1.50;1.00;1.00
62547;PMS7003;48602;45.192;5.722;2023-04-24T13:57:47;1.00;1.00;1.00
62547;PMS7003;48602;45.192;5.722;2023-04-24T14:00:14;1.00;0.80;0.80
62547;PMS7003;48602;45.192;5.722;2023-04-24T14:02:40;3.00;1.00;1.00
62547;PMS7003;48602;45.192;5.722;2023-04-24T14:05:05;1.50;1.25;1.00
62547;PMS7003;48602;45.192;5.722;2023-04-24T14:07:31;2.00;1.00;1.00
62547;PMS7003;48602;45.192;5.722;2023-04-24T14:09:56;1.00;1.00;1.00
62547;PMS7003;48602;45.192;5.722;2023-04-24T14:12:22;1.00;1.00;1.00
62547;PMS7003;48602;45.192;5.722;2023-04-24T14:14:47;1.50;1.50;1.00
62547;PMS7003;48602;45.192;5.722;2023-04-24T14:17:13;1.00;1.00;1.00
62547;PMS7003;48602;45.192;5.722;2023-04-24T14:19:39;1.20;1.20;1.00
62547;PMS7003;48602;45.192;5.722;2023-04-24T14:22:04;0.75;0.75;0.75
62547;PMS7003;48602;45.192;5.722;2023-04-24T14:24:30;2.50;2.00;1.75
62547;PMS7003;48602;45.192;5.722;2023-04-24T14:26:55;2.25;2.25;1.75
62547;PMS7003;48602;45.192;5.722;2023-04-24T14:29:21;1.00;1.00;1.00
62547;PMS7003;48602;45.192;5.722;2023-04-24T14:31:47;1.25;1.25;1.00
62547;PMS7003;48602;45.192;5.722;2023-04-24T14:34:13;2.00;2.00;2.00
62547;PMS7003;48602;45.192;5.722;2023-04-24T14:36:38;1.40;1.00;1.00